createdAt,value
2018-11-11T00:00:21.716Z,100450.66
2018-11-11T00:02:52.376Z,100452.78
2018-11-11T00:05:22.016Z,100459.31
2018-11-11T00:07:51.576Z,100457.41
2018-11-11T00:10:21.070Z,100459.03
2018-11-11T00:12:50.632Z,100455.25
2018-11-11T00:15:20.133Z,100458.77
2018-11-11T00:17:49.697Z,100462.25
2018-11-11T00:20:19.248Z,100456.08
2018-11-11T00:22:48.751Z,100462.41
2018-11-11T00:25:18.350Z,100458.95
2018-11-11T00:27:47.842Z,100455.81
2018-11-11T00:30:18.559Z,100454.84
2018-11-11T00:32:48.106Z,100456.90
2018-11-11T00:35:17.659Z,100450.05
2018-11-11T00:37:47.282Z,100455.13
2018-11-11T00:40:17.186Z,100462.25
2018-11-11T00:42:46.992Z,100454.34
2018-11-11T00:45:16.922Z,100460.45
2018-11-11T00:47:46.960Z,100464.71
2018-11-11T00:50:16.523Z,100466.55
2018-11-11T00:52:46.075Z,100468.64
2018-11-11T00:55:16.863Z,100473.70
2018-11-11T00:57:46.704Z,100473.39
2018-11-11T01:00:17.458Z,100470.05
2018-11-11T01:02:47.383Z,100470.77
2018-11-11T01:05:16.955Z,100470.42
2018-11-11T01:07:46.612Z,100468.44
2018-11-11T01:10:17.074Z,100475.89
2018-11-11T01:12:46.785Z,100473.90
2018-11-11T01:15:17.068Z,100374.02
2018-11-11T01:17:46.663Z,100476.66
2018-11-11T01:20:17.231Z,100478.41
2018-11-11T01:22:47.272Z,100485.86
2018-11-11T01:25:17.632Z,100482.19
2018-11-11T01:27:47.203Z,100480.19
2018-11-11T01:30:16.732Z,100484.94
2018-11-11T01:32:46.230Z,100482.46
2018-11-11T01:35:16.745Z,100482.64
2018-11-11T01:37:46.448Z,100484.88
2018-11-11T01:40:16.142Z,100484.58
2018-11-11T01:42:45.695Z,100483.41
2018-11-11T01:45:16.855Z,100484.12
2018-11-11T01:47:47.009Z,100482.95
2018-11-11T01:50:16.714Z,100480.48
2018-11-11T01:52:46.364Z,100477.45
2018-11-11T01:55:15.968Z,100480.66
2018-11-11T01:57:45.522Z,100468.20
2018-11-11T02:00:17.596Z,100474.11
2018-11-11T02:02:48.021Z,100466.73
2018-11-11T02:05:17.632Z,100464.22
2018-11-11T02:07:47.719Z,100463.39
2018-11-11T02:10:17.304Z,100469.82
2018-11-11T02:12:47.307Z,100465.14
2018-11-11T02:15:17.631Z,100468.84
2018-11-11T02:17:47.203Z,100472.58
2018-11-11T02:20:17.995Z,100477.11
2018-11-11T02:22:48.484Z,100475.97
2018-11-11T02:25:18.050Z,100478.33
2018-11-11T02:27:47.864Z,100487.45
2018-11-11T02:30:21.444Z,100490.63
2018-11-11T02:32:51.272Z,100490.51
2018-11-11T02:35:20.850Z,100493.20
2018-11-11T02:37:50.415Z,100485.00
2018-11-11T02:40:20.551Z,100480.65
2018-11-11T02:42:50.462Z,100492.77
2018-11-11T02:45:20.611Z,100488.27
2018-11-11T02:47:50.148Z,100491.97
2018-11-11T02:50:20.426Z,100493.01
2018-11-11T02:52:49.983Z,100491.02
2018-11-11T02:55:19.528Z,100493.58
2018-11-11T02:57:49.201Z,100489.73
2018-11-11T03:00:20.811Z,100488.25
2018-11-11T03:02:50.686Z,100494.13
2018-11-11T03:05:20.531Z,100497.86
2018-11-11T03:07:50.098Z,100494.00
2018-11-11T03:10:19.770Z,100497.52
2018-11-11T03:12:50.171Z,100506.45
2018-11-11T03:15:20.049Z,100495.52
2018-11-11T03:17:49.565Z,100496.05
2018-11-11T03:20:19.482Z,100496.26
2018-11-11T03:22:49.002Z,100503.69
2018-11-11T03:25:18.870Z,100500.34
2018-11-11T03:27:48.430Z,100507.25
2018-11-11T03:30:18.586Z,100506.61
2018-11-11T03:32:48.134Z,100513.86
2018-11-11T03:35:17.729Z,100509.48
2018-11-11T03:37:47.563Z,100503.09
2018-11-11T03:40:18.385Z,100504.38
2018-11-11T03:42:48.280Z,100499.95
2018-11-11T03:45:18.964Z,100497.86
2018-11-11T03:47:49.575Z,100492.42
2018-11-11T03:50:19.300Z,100492.23
2018-11-11T03:52:49.064Z,100494.91
2018-11-11T03:55:18.792Z,100496.67
2018-11-11T03:57:48.339Z,100489.83
2018-11-11T04:00:18.209Z,100492.47
2018-11-11T04:02:47.801Z,100494.77
2018-11-11T04:05:18.006Z,100501.02
2018-11-11T04:07:47.619Z,100502.48
2018-11-11T04:10:18.510Z,100514.20
2018-11-11T04:12:48.548Z,100518.77
2018-11-11T04:15:19.343Z,100513.26
2018-11-11T04:17:49.000Z,100520.69
2018-11-11T04:20:19.782Z,100516.31
2018-11-11T04:22:49.314Z,100515.66
2018-11-11T04:25:19.411Z,100519.05
2018-11-11T04:27:48.985Z,100522.78
2018-11-11T04:30:18.578Z,100526.05
2018-11-11T04:32:48.208Z,100525.92
2018-11-11T04:35:17.768Z,100526.45
2018-11-11T04:37:47.362Z,100524.67
2018-11-11T04:40:16.898Z,100525.03
2018-11-11T04:42:46.490Z,100523.73
2018-11-11T04:45:16.832Z,100526.30
2018-11-11T04:47:47.004Z,100526.16
2018-11-11T04:50:17.545Z,100530.38
2018-11-11T04:52:47.668Z,100530.55
2018-11-11T04:55:17.231Z,100531.77
2018-11-11T04:57:46.793Z,100535.67
2018-11-11T05:00:16.419Z,100538.02
2018-11-11T05:02:45.965Z,100546.30
2018-11-11T05:05:15.566Z,100545.45
2018-11-11T05:07:45.099Z,100543.45
2018-11-11T05:10:14.765Z,100484.39
2018-11-11T05:12:44.381Z,100549.21
2018-11-11T05:15:14.572Z,100555.80
2018-11-11T05:17:44.359Z,100551.42
2018-11-11T05:20:14.288Z,100556.33
2018-11-11T05:22:44.127Z,100565.73
2018-11-11T05:25:14.763Z,100564.88
2018-11-11T05:27:44.855Z,100568.73
2018-11-11T05:30:14.959Z,100576.11
2018-11-11T05:32:44.515Z,100581.67
2018-11-11T05:35:14.114Z,100583.15
2018-11-11T05:37:44.031Z,100587.53
2018-11-11T05:40:14.192Z,100585.49
2018-11-11T05:42:44.374Z,100591.34
2018-11-11T05:45:15.027Z,100588.27
2018-11-11T05:47:44.708Z,100588.41
2018-11-11T05:50:15.320Z,100596.44
2018-11-11T05:52:45.848Z,100590.70
2018-11-11T05:55:15.439Z,100599.70
2018-11-11T05:57:44.932Z,100601.34
2018-11-11T06:00:15.794Z,100600.59
2018-11-11T06:02:45.641Z,100604.25
2018-11-11T06:05:15.983Z,100616.13
2018-11-11T06:07:45.539Z,100610.59
2018-11-11T06:10:15.655Z,100611.48
2018-11-11T06:12:45.191Z,100614.08
2018-11-11T06:15:15.225Z,100614.03
2018-11-11T06:17:44.762Z,100611.23
2018-11-11T06:20:15.528Z,100614.78
2018-11-11T06:22:45.079Z,100612.75
2018-11-11T06:25:14.663Z,100608.28
2018-11-11T06:27:44.235Z,100611.64
2018-11-11T06:30:14.048Z,100615.09
2018-11-11T06:32:43.635Z,100619.48
2018-11-11T06:35:13.200Z,100611.38
2018-11-11T06:37:42.816Z,100620.28
2018-11-11T06:40:13.716Z,100619.45
2018-11-11T06:42:43.438Z,100618.90
2018-11-11T06:45:14.270Z,100626.48
2018-11-11T06:47:44.534Z,100627.00
2018-11-11T06:50:15.012Z,100633.91
2018-11-11T06:52:44.968Z,100631.06
2018-11-11T06:55:14.603Z,100628.84
2018-11-11T06:57:44.216Z,100628.77
2018-11-11T07:00:14.995Z,100629.54
2018-11-11T07:02:55.224Z,100636.55
2018-11-11T07:05:24.782Z,100633.56
2018-11-11T07:07:54.343Z,100640.58
2018-11-11T07:10:23.858Z,100636.66
2018-11-11T07:12:53.378Z,100640.34
2018-11-11T07:15:23.022Z,100643.67
2018-11-11T07:17:52.571Z,100646.61
2018-11-11T07:20:22.115Z,100649.77
2018-11-11T07:22:51.633Z,100649.58
2018-11-11T07:25:21.167Z,100650.55
2018-11-11T07:27:50.712Z,100655.25
2018-11-11T07:30:20.317Z,100658.48
2018-11-11T07:32:49.862Z,100658.38
2018-11-11T07:35:19.429Z,100659.74
2018-11-11T07:37:48.977Z,100659.11
2018-11-11T07:40:18.560Z,100660.47
2018-11-11T07:42:48.124Z,100656.81
2018-11-11T07:45:17.676Z,100664.02
2018-11-11T07:47:47.280Z,100663.63
2018-11-11T07:50:16.787Z,100672.37
2018-11-11T07:52:46.430Z,100663.22
2018-11-11T07:55:15.956Z,100664.97
2018-11-11T07:57:45.547Z,100663.67
2018-11-11T08:00:15.304Z,100660.63
2018-11-11T08:02:44.875Z,100659.60
2018-11-11T08:05:15.328Z,100660.54
2018-11-11T08:07:44.891Z,100671.89
2018-11-11T08:10:25.343Z,100666.77
2018-11-11T08:12:54.935Z,100666.55
2018-11-11T08:15:24.453Z,100670.50
2018-11-11T08:17:54.003Z,100681.64
2018-11-11T08:20:23.608Z,100677.12
2018-11-11T08:22:53.147Z,100677.97
2018-11-11T08:25:22.717Z,100679.52
2018-11-11T08:27:52.277Z,100679.70
2018-11-11T08:30:21.823Z,100678.84
2018-11-11T08:32:51.399Z,100674.16
2018-11-11T08:35:20.927Z,100669.47
2018-11-11T08:37:50.474Z,100670.97
2018-11-11T08:40:20.057Z,100674.63
2018-11-11T08:42:49.631Z,100686.23
2018-11-11T08:45:19.151Z,100692.57
2018-11-11T08:47:48.711Z,100686.45
2018-11-11T08:50:18.272Z,100692.25
2018-11-11T08:52:47.843Z,100686.47
2018-11-11T08:55:17.377Z,100681.40
2018-11-11T08:57:46.908Z,100686.48
2018-11-11T09:00:16.711Z,100687.05
2018-11-11T09:02:46.275Z,100686.04
2018-11-11T09:05:15.873Z,100682.73
2018-11-11T09:07:45.447Z,100680.81
2018-11-11T09:10:15.007Z,100685.04
2018-11-11T09:12:44.570Z,100680.97
2018-11-11T09:15:15.068Z,100679.62
2018-11-11T09:17:44.858Z,100674.76
2018-11-11T09:20:15.435Z,100674.77
2018-11-11T09:22:45.050Z,100672.30
2018-11-11T09:25:14.614Z,100669.12
2018-11-11T09:27:44.172Z,100668.83
2018-11-11T09:30:14.967Z,100668.21
2018-11-11T09:32:44.545Z,100662.19
2018-11-11T09:35:14.158Z,100660.53
2018-11-11T09:37:43.674Z,100657.66
2018-11-11T09:40:13.690Z,100653.43
2018-11-11T09:42:43.641Z,100655.78
2018-11-11T09:45:14.551Z,100651.80
2018-11-11T09:47:44.565Z,100648.13
2018-11-11T09:50:15.795Z,100649.20
2018-11-11T09:52:45.391Z,100644.97
2018-11-11T09:55:15.242Z,100642.19
2018-11-11T09:57:44.791Z,100642.98
2018-11-11T10:00:19.144Z,100645.10
2018-11-11T10:02:54.470Z,100643.33
2018-11-11T10:05:30.565Z,100640.28
2018-11-11T10:08:04.311Z,100638.86
2018-11-11T10:10:38.964Z,100628.69
2018-11-11T10:15:16.482Z,100624.93
2018-11-11T10:17:58.462Z,100626.63
2018-11-11T10:21:35.871Z,100627.88
2018-11-11T10:24:11.270Z,100624.82
2018-11-11T10:27:52.216Z,100627.37
2018-11-11T10:30:27.787Z,100528.14
2018-11-11T10:35:15.239Z,100632.88
2018-11-11T10:37:48.920Z,100631.55
2018-11-11T10:40:25.076Z,100627.89
2018-11-11T10:42:59.667Z,100630.08
2018-11-11T10:45:34.572Z,100623.80
2018-11-11T10:48:06.739Z,100619.23
2018-11-11T10:50:39.980Z,100617.95
2018-11-11T10:53:09.597Z,100613.33
2018-11-11T10:55:39.189Z,100615.94
2018-11-11T10:58:08.742Z,100613.03
2018-11-11T11:00:43.414Z,100613.68
2018-11-11T11:03:17.939Z,100613.50
2018-11-11T11:05:47.480Z,100616.35
2018-11-11T11:08:17.031Z,100615.58
2018-11-11T11:10:46.601Z,100611.71
2018-11-11T11:13:16.219Z,100600.91
2018-11-11T11:15:45.706Z,100601.33
2018-11-11T11:18:15.290Z,100601.02
2018-11-11T11:20:44.973Z,100604.23
2018-11-11T11:23:14.512Z,100597.23
2018-11-11T11:25:44.115Z,100598.55
2018-11-11T11:28:13.683Z,100593.51
2018-11-11T11:30:43.239Z,100596.10
2018-11-11T11:33:12.751Z,100601.97
2018-11-11T11:35:42.404Z,100595.23
2018-11-11T11:38:11.986Z,100595.06
2018-11-11T11:40:41.479Z,100598.96
2018-11-11T11:43:11.036Z,100588.10
2018-11-11T11:45:40.580Z,100593.09
2018-11-11T11:48:10.148Z,100596.64
2018-11-11T11:50:39.674Z,100595.28
2018-11-11T11:53:09.200Z,100591.68
2018-11-11T11:55:38.787Z,100589.81
2018-11-11T11:58:17.323Z,100586.63
2018-11-11T12:00:46.814Z,100592.36
2018-11-11T12:03:16.633Z,100591.34
2018-11-11T12:05:46.922Z,100585.35
2018-11-11T12:08:16.468Z,100591.67
2018-11-11T12:10:45.983Z,100591.48
2018-11-11T12:13:16.275Z,100594.21
2018-11-11T12:15:45.938Z,100590.90
2018-11-11T12:18:15.479Z,100587.11
2018-11-11T12:20:45.009Z,100587.66
2018-11-11T12:23:14.627Z,100589.02
2018-11-11T12:25:44.198Z,100587.39
2018-11-11T12:28:13.753Z,100592.61
2018-11-11T12:30:43.382Z,100591.80
2018-11-11T12:33:12.891Z,100588.05
2018-11-11T12:35:42.481Z,100592.38
2018-11-11T12:38:12.051Z,100591.30
2018-11-11T12:40:41.584Z,100593.55
2018-11-11T12:43:11.143Z,100594.38
2018-11-11T12:45:40.696Z,100596.52
2018-11-11T12:48:10.248Z,100594.33
2018-11-11T12:50:39.751Z,100594.56
2018-11-11T12:53:09.293Z,100594.88
2018-11-11T12:55:38.839Z,100598.12
2018-11-11T12:58:08.387Z,100593.20
2018-11-11T13:00:37.959Z,100600.80
2018-11-11T13:03:07.554Z,100599.98
2018-11-11T13:05:37.077Z,100604.08
2018-11-11T13:08:06.756Z,100602.98
2018-11-11T13:10:36.232Z,100596.43
2018-11-11T13:13:06.059Z,100592.84
2018-11-11T13:15:35.582Z,100591.80
2018-11-11T13:18:05.238Z,100601.03
2018-11-11T13:20:34.787Z,100599.98
2018-11-11T13:23:04.425Z,100601.58
2018-11-11T13:25:33.951Z,100602.13
2018-11-11T13:28:03.497Z,100603.77
2018-11-11T13:30:32.988Z,100606.49
2018-11-11T13:33:02.559Z,100603.77
2018-11-11T13:35:32.118Z,100606.45
2018-11-11T13:38:01.719Z,100610.77
2018-11-11T13:40:31.329Z,100611.62
2018-11-11T13:43:00.902Z,100616.49
2018-11-11T13:45:30.394Z,100618.37
2018-11-11T13:47:59.936Z,100616.41
2018-11-11T13:50:29.474Z,100612.00
2018-11-11T13:52:58.988Z,100615.50
2018-11-11T13:55:28.556Z,100616.28
2018-11-11T13:57:58.131Z,100620.32
2018-11-11T14:00:28.489Z,100618.05
2018-11-11T14:02:58.196Z,100619.91
2018-11-11T14:05:27.720Z,100616.28
2018-11-11T14:07:57.341Z,100619.24
2018-11-11T14:10:26.916Z,100616.19
2018-11-11T14:12:56.451Z,100505.00
2018-11-11T14:15:26.376Z,100623.19
2018-11-11T14:17:56.533Z,100623.37
2018-11-11T14:20:26.549Z,100616.96
2018-11-11T14:22:56.711Z,100612.00
2018-11-11T14:25:28.622Z,100612.69
2018-11-11T14:27:58.151Z,100608.22
2018-11-11T14:30:28.531Z,100613.84
2018-11-11T14:32:58.957Z,100609.82
2018-11-11T14:35:28.503Z,100600.72
2018-11-11T14:37:58.169Z,100604.67
2018-11-11T14:40:28.980Z,100601.52
2018-11-11T14:42:58.658Z,100600.28
2018-11-11T14:45:28.411Z,100603.13
2018-11-11T14:47:58.392Z,100605.42
2018-11-11T14:50:28.050Z,100608.03
2018-11-11T14:52:57.608Z,100608.42
2018-11-11T14:55:29.173Z,100616.93
2018-11-11T14:57:59.701Z,100619.45
2018-11-11T15:00:30.397Z,100616.23
2018-11-11T15:03:04.189Z,100617.09
2018-11-11T15:05:33.814Z,100623.62
2018-11-11T15:08:03.588Z,100620.61
2018-11-11T15:10:33.219Z,100628.05
2018-11-11T15:13:02.930Z,100627.75
2018-11-11T15:15:32.446Z,100628.56
2018-11-11T15:18:02.338Z,100628.05
2018-11-11T15:20:32.168Z,100631.89
2018-11-11T15:23:01.677Z,100622.45
2018-11-11T15:25:31.764Z,100624.94
2018-11-11T15:28:01.225Z,100629.41
2018-11-11T15:30:32.219Z,100629.70
2018-11-11T15:33:02.232Z,100639.50
2018-11-11T15:35:31.801Z,100642.19
2018-11-11T15:38:01.407Z,100635.39
2018-11-11T15:40:32.316Z,100641.64
2018-11-11T15:43:02.010Z,100653.60
2018-11-11T15:45:32.907Z,100659.09
2018-11-11T15:48:02.650Z,100656.11
2018-11-11T15:50:33.206Z,100656.09
2018-11-11T15:53:04.050Z,100656.06
2018-11-11T15:55:34.697Z,100662.04
2018-11-11T15:58:04.320Z,100666.95
2018-11-11T16:00:35.160Z,100666.17
2018-11-11T16:03:04.806Z,100673.50
2018-11-11T16:05:34.335Z,100679.80
2018-11-11T16:08:04.227Z,100680.66
2018-11-11T16:10:34.451Z,100677.69
2018-11-11T16:13:04.036Z,100673.86
2018-11-11T16:15:35.157Z,100678.78
2018-11-11T16:18:06.296Z,100679.84
2018-11-11T16:20:35.866Z,100680.70
2018-11-11T16:23:06.291Z,100684.59
2018-11-11T16:25:36.214Z,100687.63
2018-11-11T16:28:05.963Z,100691.51
2018-11-11T16:30:36.635Z,100580.67
2018-11-11T16:33:07.683Z,100692.99
2018-11-11T16:35:37.317Z,100701.64
2018-11-11T16:38:07.249Z,100704.46
2018-11-11T16:40:37.725Z,100708.63
2018-11-11T16:43:07.339Z,100709.80
2018-11-11T16:45:37.760Z,100715.13
2018-11-11T16:48:07.690Z,100721.17
2018-11-11T16:50:37.892Z,100722.63
2018-11-11T16:53:09.001Z,100728.16
2018-11-11T16:55:38.969Z,100727.20
2018-11-11T16:58:08.504Z,100730.34
2018-11-11T17:00:38.622Z,100732.52
2018-11-11T17:03:08.973Z,100729.09
2018-11-11T17:05:39.082Z,100732.39
2018-11-11T17:08:08.616Z,100733.84
2018-11-11T17:10:38.848Z,100733.94
2018-11-11T17:13:09.977Z,100733.64
2018-11-11T17:15:39.556Z,100734.53
2018-11-11T17:18:09.108Z,100731.63
2018-11-11T17:20:38.783Z,100631.17
2018-11-11T17:23:08.832Z,100720.02
2018-11-11T17:25:38.380Z,100736.90
2018-11-11T17:28:08.125Z,100744.62
2018-11-11T17:30:37.657Z,100616.30
2018-11-11T17:33:07.324Z,100745.82
2018-11-11T17:35:36.824Z,100744.56
2018-11-11T17:38:06.535Z,100751.42
2018-11-11T17:40:36.078Z,100752.03
2018-11-11T17:43:05.936Z,100752.34
2018-11-11T17:45:35.545Z,100765.95
2018-11-11T17:48:05.100Z,100765.71
2018-11-11T17:50:34.820Z,100770.91
2018-11-11T17:53:05.599Z,100773.70
2018-11-11T17:55:35.243Z,100778.85
2018-11-11T17:58:04.876Z,100776.23
2018-11-11T18:00:34.446Z,100774.33
2018-11-11T18:03:04.292Z,100776.47
2018-11-11T18:05:33.815Z,100779.66
2018-11-11T18:08:03.421Z,100783.80
2018-11-11T18:10:33.023Z,100780.02
2018-11-11T18:13:02.539Z,100783.84
2018-11-11T18:15:32.755Z,100781.40
2018-11-11T18:18:02.259Z,100779.82
2018-11-11T18:20:33.063Z,100783.95
2018-11-11T18:23:03.225Z,100782.14
2018-11-11T18:25:32.927Z,100786.39
2018-11-11T18:28:02.784Z,100786.60
2018-11-11T18:30:34.246Z,100786.48
2018-11-11T18:33:03.819Z,100794.97
2018-11-11T18:35:33.313Z,100801.72
2018-11-11T18:38:02.886Z,100801.08
2018-11-11T18:40:32.406Z,100802.31
2018-11-11T18:43:01.939Z,100807.59
2018-11-11T18:45:31.678Z,100806.09
2018-11-11T18:48:01.332Z,100813.37
2018-11-11T18:50:32.206Z,100812.42
2018-11-11T18:53:02.015Z,100817.48
2018-11-11T18:55:31.607Z,100822.89
2018-11-11T18:58:01.389Z,100825.41
2018-11-11T19:00:32.147Z,100834.74
2018-11-11T19:03:01.716Z,100830.69
2018-11-11T19:05:31.326Z,100829.39
2018-11-11T19:08:00.860Z,100837.25
2018-11-11T19:10:31.952Z,100831.84
2018-11-11T19:13:03.685Z,100833.69
2018-11-11T19:15:33.215Z,100828.92
2018-11-11T19:18:02.812Z,100830.80
2018-11-11T19:20:32.323Z,100823.92
2018-11-11T19:23:01.886Z,100828.69
2018-11-11T19:25:31.937Z,100838.66
2018-11-11T19:28:02.303Z,100846.61
2018-11-11T19:30:32.554Z,100843.48
2018-11-11T19:33:02.094Z,100846.89
2018-11-11T19:35:31.602Z,100848.61
2018-11-11T19:38:01.162Z,100848.83
2018-11-11T19:40:31.000Z,100856.29
2018-11-11T19:43:01.448Z,100863.41
2018-11-11T19:45:31.776Z,100866.81
2018-11-11T19:48:01.400Z,100872.09
2018-11-11T19:50:31.145Z,100863.01
2018-11-11T19:53:00.883Z,100866.94
2018-11-11T19:55:30.396Z,100870.34
2018-11-11T19:57:59.972Z,100875.62
2018-11-11T20:00:30.739Z,100876.50
2018-11-11T20:03:01.248Z,100878.25
2018-11-11T20:05:30.981Z,100873.73
2018-11-11T20:08:01.337Z,100877.66
2018-11-11T20:10:31.395Z,100871.77
2018-11-11T20:13:01.561Z,100872.16
2018-11-11T20:15:32.438Z,100881.14
2018-11-11T20:18:02.003Z,100876.31
2018-11-11T20:20:33.964Z,100877.20
2018-11-11T20:23:03.569Z,100878.28
2018-11-11T20:25:33.081Z,100875.82
2018-11-11T20:28:02.701Z,100873.17
2018-11-11T20:30:33.572Z,100886.02
2018-11-11T20:33:03.120Z,100886.89
2018-11-11T20:35:33.164Z,100884.24
2018-11-11T20:38:02.772Z,100893.55
2018-11-11T20:40:32.346Z,100887.69
2018-11-11T20:43:01.954Z,100887.24
2018-11-11T20:45:32.864Z,100883.55
2018-11-11T20:48:02.406Z,100883.94
2018-11-11T20:50:32.978Z,100896.25
2018-11-11T20:53:03.763Z,100891.73
2018-11-11T20:55:33.321Z,100899.00
2018-11-11T20:58:03.081Z,100896.69
2018-11-11T21:00:34.834Z,100902.25
2018-11-11T21:03:04.464Z,100902.25
2018-11-11T21:05:34.038Z,100901.91
2018-11-11T21:08:03.591Z,100899.73
2018-11-11T21:10:33.222Z,100904.65
2018-11-11T21:13:02.842Z,100907.21
2018-11-11T21:15:32.655Z,100906.56
2018-11-11T21:18:02.199Z,100912.64
2018-11-11T21:20:32.794Z,100912.51
2018-11-11T21:23:02.384Z,100906.98
2018-11-11T21:25:31.964Z,100908.50
2018-11-11T21:28:01.662Z,100901.11
2018-11-11T21:30:32.095Z,100903.98
2018-11-11T21:33:01.743Z,100912.27
2018-11-11T21:35:31.310Z,100911.62
2018-11-11T21:38:00.901Z,100914.66
2018-11-11T21:40:30.424Z,100909.97
2018-11-11T21:43:00.001Z,100910.66
2018-11-11T21:45:29.910Z,100909.69
2018-11-11T21:47:59.511Z,100910.38
2018-11-11T21:50:29.335Z,100917.81
2018-11-11T21:53:39.389Z,100914.11
2018-11-11T21:56:09.205Z,100920.19
2018-11-11T21:58:38.819Z,100924.61
2018-11-11T22:01:08.344Z,100924.98
2018-11-11T22:03:37.997Z,100930.03
2018-11-11T22:06:07.509Z,100930.20
2018-11-11T22:08:37.071Z,100929.06
2018-11-11T22:11:06.930Z,100934.63
2018-11-11T22:13:36.474Z,100932.10
2018-11-11T22:16:06.130Z,100937.17
2018-11-11T22:18:35.834Z,100936.83
2018-11-11T22:21:05.562Z,100945.95
2018-11-11T22:23:35.050Z,100946.95
2018-11-11T22:26:04.626Z,100945.29
2018-11-11T22:28:34.191Z,100939.90
2018-11-11T22:31:03.772Z,100941.73
2018-11-11T22:33:33.313Z,100938.20
2018-11-11T22:36:02.850Z,100935.03
2018-11-11T22:38:32.423Z,100940.47
2018-11-11T22:41:01.944Z,100935.77
2018-11-11T22:43:31.564Z,100939.64
2018-11-11T22:46:01.089Z,100939.66
2018-11-11T22:48:30.679Z,100939.35
2018-11-11T22:51:00.189Z,100947.11
2018-11-11T22:53:29.726Z,100942.41
2018-11-11T22:55:59.316Z,100953.16
2018-11-11T22:58:28.864Z,100952.47
2018-11-11T23:01:03.414Z,100950.81
2018-11-11T23:03:32.983Z,100947.48
2018-11-11T23:06:02.572Z,100942.61
2018-11-11T23:08:32.138Z,100938.72
2018-11-11T23:11:01.687Z,100940.04
2018-11-11T23:13:31.196Z,100946.08
2018-11-11T23:16:00.843Z,100943.70
2018-11-11T23:18:30.377Z,100953.64
2018-11-11T23:20:59.964Z,100946.08
2018-11-11T23:23:29.530Z,100950.13
2018-11-11T23:25:59.081Z,100941.53
2018-11-11T23:28:28.691Z,100943.05
2018-11-11T23:30:58.303Z,100943.05
2018-11-11T23:33:27.864Z,100940.55
2018-11-11T23:35:57.380Z,100948.12
2018-11-11T23:38:26.936Z,100945.08
2018-11-11T23:40:56.466Z,100950.98
2018-11-11T23:43:26.028Z,100950.15
2018-11-11T23:45:55.630Z,100947.62
2018-11-11T23:48:25.171Z,100954.70
2018-11-11T23:50:54.718Z,100958.91
2018-11-11T23:53:24.223Z,100956.91
2018-11-11T23:55:53.803Z,100959.91
2018-11-11T23:58:23.312Z,100963.29
